メインページ
METAR-TAF:

METAR-TAF

空港 :

Quesnel, ブリティッシュコロンビア州, カナダ

緯度: 53-02N, 経度: 122-31W, 海抜: 545m

現時点の気象観測

当レポートは38分前の09:00(UTC)に作成
変向風 2kt
気温 5°C
湿度 93%
気圧 1023 hPa
視程: 14.5km
晴天

METAR: CYQZ 260900Z AUTO VRB02KT 9SM CLR 05/04 A3022 RMK SLP248

時間: 02:38 (09:38 UTC)

予報

当レポートは9時間0分前の00:38(UTC)に作成
予報は26日の 01時(UTC)から 26日の 06時(UTC)まで有効
北/北西の風 6kt
視程: 10km
高度9000ftの雲は散在している

TAF: CYQZ 260038Z 2601/2606 33006KT P6SM SCT090 RMK FCST BASED ON AUTO OBS. NXT FCST WILL BE ISSUED AT 261145Z

4,000以上の空港の気象観測と天気予報(METAR報とTAF報)

利用可能な観測所は地図上に黄色い丸と赤い丸で示す。

丸の上にカーソルを重ねると観測所名を参照できる。

次にクリックすると気象観測と天気予報を参照できる。

マップの切り替え:黒色「×」印の緑ボタンをクリックして拡大、「-」印の緑ボタンをクリックして縮小、緑色の三角印をクリックして隣りの地図に切り替え


METAR-TAF: